createdAt,value
2022-09-01T00:01:39.166Z,20.80
2022-09-01T00:04:06.421Z,20.80
2022-09-01T00:06:34.583Z,20.80
2022-09-01T00:09:04.556Z,20.80
2022-09-01T00:11:32.283Z,20.80
2022-09-01T00:14:01.493Z,20.80
2022-09-01T00:16:29.129Z,20.80
2022-09-01T00:18:56.138Z,20.80
2022-09-01T00:21:29.503Z,20.80
2022-09-01T00:23:57.502Z,20.80
2022-09-01T00:26:24.642Z,20.80
2022-09-01T00:28:51.496Z,20.80
2022-09-01T00:31:21.898Z,20.80
2022-09-01T00:33:50.352Z,20.80
2022-09-01T00:36:18.518Z,20.80
2022-09-01T00:38:45.258Z,20.80
2022-09-01T00:41:12.085Z,20.80
2022-09-01T00:43:44.435Z,20.80
2022-09-01T00:46:28.953Z,20.80
2022-09-01T00:49:00.903Z,20.80
2022-09-01T00:51:28.995Z,20.90
2022-09-01T00:53:56.903Z,20.90
2022-09-01T00:56:24.058Z,20.80
2022-09-01T00:58:52.737Z,20.80
2022-09-01T01:01:19.875Z,20.80
2022-09-01T01:03:46.934Z,20.80
2022-09-01T01:06:16.762Z,20.80
2022-09-01T01:08:49.273Z,20.80
2022-09-01T01:11:17.782Z,20.80
2022-09-01T01:13:52.125Z,20.80
2022-09-01T01:16:19.251Z,20.80
2022-09-01T01:18:45.990Z,20.80
2022-09-01T01:21:48.257Z,20.80
2022-09-01T01:24:29.051Z,20.80
2022-09-01T01:26:58.290Z,20.80
2022-09-01T01:29:25.764Z,20.80
2022-09-01T01:31:53.786Z,20.80
2022-09-01T01:34:22.619Z,20.80
2022-09-01T01:36:49.635Z,20.80
2022-09-01T01:39:22.923Z,20.70
2022-09-01T01:41:50.672Z,20.70
2022-09-01T01:44:30.083Z,20.70
2022-09-01T01:46:57.440Z,20.70
2022-09-01T01:49:26.107Z,20.70
2022-09-01T01:51:57.789Z,20.70
2022-09-01T01:54:25.806Z,20.70
2022-09-01T01:56:52.461Z,20.70
2022-09-01T01:59:19.543Z,20.60
2022-09-01T02:01:49.247Z,20.70
2022-09-01T02:04:17.088Z,20.70
2022-09-01T02:06:47.953Z,20.60
2022-09-01T02:09:16.992Z,20.60
2022-09-01T02:11:43.904Z,20.60
2022-09-01T02:14:13.332Z,20.60
2022-09-01T02:16:40.406Z,20.60
2022-09-01T02:19:09.926Z,20.60
2022-09-01T02:21:36.968Z,20.60
2022-09-01T02:24:08.360Z,20.60
2022-09-01T02:26:39.542Z,20.60
2022-09-01T02:29:17.913Z,20.50
2022-09-01T02:31:46.603Z,20.50
2022-09-01T02:34:14.034Z,20.50
2022-09-01T02:36:47.441Z,20.50
2022-09-01T02:39:19.841Z,20.50
2022-09-01T02:41:47.089Z,20.50
2022-09-01T02:44:14.672Z,20.50
2022-09-01T02:46:43.546Z,20.50
2022-09-01T02:49:17.465Z,20.50
2022-09-01T02:51:47.279Z,20.40
2022-09-01T02:54:19.170Z,20.40
2022-09-01T02:56:49.824Z,20.40
2022-09-01T02:59:18.052Z,20.40
2022-09-01T03:01:47.465Z,20.30
2022-09-01T03:04:14.581Z,20.30
2022-09-01T03:06:42.190Z,20.30
2022-09-01T03:09:11.879Z,20.30
2022-09-01T03:11:41.039Z,20.30
2022-09-01T03:14:08.057Z,20.30
2022-09-01T03:16:36.286Z,20.30
2022-09-01T03:19:04.200Z,20.30
2022-09-01T03:21:32.040Z,20.30
2022-09-01T03:24:01.845Z,20.20
2022-09-01T03:26:28.768Z,20.30
2022-09-01T03:28:56.000Z,20.20
2022-09-01T03:31:27.140Z,20.20
2022-09-01T03:33:56.912Z,20.30
2022-09-01T03:36:25.830Z,20.20
2022-09-01T03:38:52.811Z,20.20
2022-09-01T03:41:24.981Z,20.20
2022-09-01T03:43:54.980Z,20.20
2022-09-01T03:46:22.514Z,20.20
2022-09-01T03:48:58.535Z,20.20
2022-09-01T03:51:27.064Z,20.10
2022-09-01T03:53:54.918Z,20.10
2022-09-01T03:56:25.523Z,20.10
2022-09-01T03:58:52.619Z,20.10
2022-09-01T04:01:19.816Z,20.10
2022-09-01T04:03:52.093Z,20.10
2022-09-01T04:06:19.393Z,20.10
2022-09-01T04:08:47.014Z,20.00
2022-09-01T04:11:18.597Z,20.00
2022-09-01T04:13:47.177Z,20.00
2022-09-01T04:16:39.474Z,19.90
2022-09-01T04:19:15.845Z,19.90
2022-09-01T04:21:44.774Z,19.90
2022-09-01T04:24:14.777Z,19.90
2022-09-01T04:26:42.703Z,19.90
2022-09-01T04:29:11.661Z,19.80
2022-09-01T04:31:38.878Z,19.80
2022-09-01T04:34:13.105Z,19.80
2022-09-01T04:36:44.832Z,19.80
2022-09-01T04:39:13.264Z,19.80
2022-09-01T04:41:46.116Z,19.80
2022-09-01T04:44:19.011Z,19.80
2022-09-01T04:46:48.008Z,19.80
2022-09-01T04:49:19.568Z,19.80
2022-09-01T04:51:53.283Z,19.80
2022-09-01T04:54:22.570Z,19.80
2022-09-01T04:56:51.160Z,19.80
2022-09-01T04:59:20.528Z,19.80
2022-09-01T05:01:50.313Z,19.80
2022-09-01T05:04:21.275Z,19.80
2022-09-01T05:06:55.929Z,19.80
2022-09-01T05:09:22.644Z,19.80
2022-09-01T05:11:50.163Z,19.80
2022-09-01T05:14:19.868Z,19.80
2022-09-01T05:16:47.429Z,19.80
2022-09-01T05:19:15.620Z,19.80
2022-09-01T05:21:47.507Z,19.90
2022-09-01T05:24:17.611Z,19.80
2022-09-01T05:26:47.465Z,19.80
2022-09-01T05:29:15.935Z,19.80
2022-09-01T05:31:46.936Z,19.80
2022-09-01T05:34:19.966Z,19.80
2022-09-01T05:36:50.791Z,19.80
2022-09-01T05:39:18.059Z,19.80
2022-09-01T05:41:45.814Z,19.80
2022-09-01T05:44:14.060Z,19.80
2022-09-01T05:46:42.527Z,19.80
2022-09-01T05:49:18.511Z,19.80
2022-09-01T05:51:51.701Z,19.80
2022-09-01T05:54:22.981Z,19.80
2022-09-01T05:56:50.043Z,19.80
2022-09-01T05:59:25.137Z,19.80
2022-09-01T06:01:53.874Z,19.80
2022-09-01T06:04:22.272Z,19.80
2022-09-01T06:07:06.792Z,19.70
2022-09-01T06:09:38.652Z,19.80
2022-09-01T06:12:06.663Z,19.80
2022-09-01T06:14:33.801Z,19.70
2022-09-01T06:17:00.911Z,19.70
2022-09-01T06:19:28.451Z,19.70
2022-09-01T06:21:56.752Z,19.80
2022-09-01T06:24:23.546Z,19.70
2022-09-01T06:26:50.207Z,19.80
2022-09-01T06:29:17.213Z,19.80
2022-09-01T06:31:51.539Z,19.70
2022-09-01T06:34:19.610Z,19.80
2022-09-01T06:36:51.693Z,19.80
2022-09-01T06:39:21.174Z,19.80
2022-09-01T06:41:49.628Z,19.80
2022-09-01T06:44:23.047Z,19.80
2022-09-01T06:46:52.280Z,19.80
2022-09-01T06:49:21.276Z,19.70
2022-09-01T06:51:51.674Z,19.60
2022-09-01T06:54:21.051Z,19.70
2022-09-01T06:59:35.024Z,19.70
2022-09-01T07:02:04.914Z,19.60
2022-09-01T07:04:32.781Z,19.60
2022-09-01T07:07:01.842Z,19.60
2022-09-01T07:10:05.736Z,19.70
2022-09-01T07:12:34.318Z,19.80
2022-09-01T07:17:53.407Z,19.50
2022-09-01T07:20:25.421Z,19.50
2022-09-01T07:23:09.687Z,19.50
2022-09-01T07:26:01.192Z,19.60
2022-09-01T07:28:36.156Z,19.60
2022-09-01T07:33:55.760Z,19.80
2022-09-01T07:42:58.127Z,19.70
2022-09-01T07:47:56.418Z,19.90
2022-09-01T07:51:34.256Z,19.90
2022-09-01T07:53:12.491Z,19.90
2022-09-01T07:55:44.221Z,19.90
2022-09-01T07:58:11.955Z,19.90
2022-09-01T08:00:40.578Z,19.90
2022-09-01T08:03:07.469Z,19.80
2022-09-01T08:05:34.389Z,19.80
2022-09-01T08:08:01.203Z,19.80
2022-09-01T08:10:28.500Z,19.80
2022-09-01T08:12:56.758Z,19.90
2022-09-01T08:15:41.055Z,19.90
2022-09-01T08:18:14.190Z,20.00
2022-09-01T08:20:47.115Z,20.10
2022-09-01T08:23:18.274Z,20.10
2022-09-01T08:25:46.603Z,20.20
2022-09-01T08:28:14.901Z,20.20
2022-09-01T08:30:51.991Z,20.40
2022-09-01T08:33:20.090Z,20.40
2022-09-01T08:35:48.963Z,20.50
2022-09-01T08:38:16.032Z,20.60
2022-09-01T08:40:51.404Z,20.60
2022-09-01T08:43:41.931Z,20.60
2022-09-01T08:46:26.831Z,20.70
2022-09-01T08:49:24.370Z,20.80
2022-09-01T08:52:06.486Z,20.80
2022-09-01T08:54:41.943Z,20.80
2022-09-01T08:57:20.753Z,20.80
2022-09-01T08:59:47.739Z,20.80
2022-09-01T09:02:37.224Z,20.90
2022-09-01T09:05:45.253Z,20.90
2022-09-01T09:08:51.504Z,20.90
2022-09-01T09:11:36.781Z,20.90
2022-09-01T09:14:31.624Z,20.90
2022-09-01T09:16:58.753Z,21.00
2022-09-01T09:19:33.686Z,21.00
2022-09-01T09:22:04.351Z,21.00
2022-09-01T09:24:52.883Z,21.00
2022-09-01T09:27:31.994Z,21.10
2022-09-01T09:30:09.368Z,21.10
2022-09-01T09:33:25.072Z,21.00
2022-09-01T09:35:46.621Z,21.00
2022-09-01T09:38:21.057Z,20.90
2022-09-01T09:41:25.750Z,21.00
2022-09-01T09:43:59.383Z,21.00
2022-09-01T09:46:36.795Z,20.90
2022-09-01T09:49:12.017Z,20.90
2022-09-01T09:51:40.872Z,21.00
2022-09-01T09:54:23.892Z,21.00
2022-09-01T09:57:09.244Z,21.00
2022-09-01T09:59:58.877Z,21.10
2022-09-01T10:02:33.441Z,21.10
2022-09-01T10:05:02.499Z,21.20
2022-09-01T10:07:36.755Z,21.20
2022-09-01T10:10:24.532Z,21.30
2022-09-01T10:12:54.102Z,21.30
2022-09-01T10:15:24.857Z,21.20
2022-09-01T10:18:19.599Z,21.10
2022-09-01T10:20:53.219Z,21.10
2022-09-01T10:23:19.963Z,21.10
2022-09-01T10:25:50.369Z,21.20
2022-09-01T10:28:24.211Z,21.20
2022-09-01T10:30:53.879Z,21.20
2022-09-01T10:33:22.291Z,21.20
2022-09-01T10:35:52.542Z,21.20
2022-09-01T10:38:26.684Z,21.20
2022-09-01T10:41:09.107Z,21.10
2022-09-01T10:43:50.495Z,21.20
2022-09-01T10:46:26.288Z,21.20
2022-09-01T10:49:02.895Z,21.20
2022-09-01T10:51:36.361Z,21.30
2022-09-01T10:54:06.773Z,21.40
2022-09-01T10:56:51.749Z,21.40
2022-09-01T10:59:31.554Z,21.40
2022-09-01T11:04:52.512Z,21.40
2022-09-01T11:07:26.874Z,21.50
2022-09-01T11:10:40.239Z,21.60
2022-09-01T11:13:24.544Z,21.70
2022-09-01T11:15:51.568Z,21.70
2022-09-01T11:18:27.445Z,21.70
2022-09-01T11:20:57.811Z,21.70
2022-09-01T11:23:27.677Z,21.70
2022-09-01T11:28:44.111Z,21.70
2022-09-01T11:31:28.971Z,21.70
2022-09-01T11:34:03.704Z,21.80
2022-09-01T11:36:52.736Z,21.80
2022-09-01T11:39:20.947Z,21.80
2022-09-01T11:42:06.788Z,21.90
2022-09-01T11:44:55.432Z,22.00
2022-09-01T11:47:26.531Z,22.10
2022-09-01T11:49:57.621Z,22.10
2022-09-01T11:52:30.094Z,22.10
2022-09-01T11:54:58.078Z,22.10
2022-09-01T11:57:27.621Z,22.00
2022-09-01T11:59:56.377Z,22.10
2022-09-01T12:02:33.565Z,22.00
2022-09-01T12:05:25.631Z,22.00
2022-09-01T12:07:52.986Z,21.90
2022-09-01T12:10:39.056Z,21.90
2022-09-01T12:13:21.231Z,21.80
2022-09-01T12:16:20.931Z,21.70
2022-09-01T12:18:51.387Z,21.60
2022-09-01T12:21:23.019Z,21.60
2022-09-01T12:23:50.102Z,21.60
2022-09-01T12:26:22.718Z,21.60
2022-09-01T12:28:50.236Z,21.60
2022-09-01T12:31:24.157Z,21.70
2022-09-01T12:33:53.272Z,21.70
2022-09-01T12:36:30.365Z,21.70
2022-09-01T12:39:17.322Z,21.70
2022-09-01T12:41:47.232Z,21.70
2022-09-01T12:44:47.682Z,21.70
2022-09-01T12:47:34.302Z,21.70
2022-09-01T12:50:04.061Z,21.80
2022-09-01T12:52:33.265Z,21.90
2022-09-01T12:54:59.936Z,22.00
2022-09-01T12:57:31.054Z,21.90
2022-09-01T13:00:23.216Z,22.10
2022-09-01T13:05:31.233Z,22.00
2022-09-01T13:08:02.840Z,22.10
2022-09-01T13:10:38.148Z,22.20
2022-09-01T13:13:06.322Z,22.30
2022-09-01T13:15:34.612Z,22.40
2022-09-01T13:18:01.523Z,22.40
2022-09-01T13:20:28.202Z,22.50
2022-09-01T13:22:54.883Z,22.50
2022-09-01T13:25:23.682Z,22.60
2022-09-01T13:27:52.327Z,22.60
2022-09-01T13:30:22.300Z,22.60
2022-09-01T13:35:36.589Z,22.60
2022-09-01T13:38:03.272Z,22.60
2022-09-01T13:40:31.676Z,22.70
2022-09-01T13:42:58.957Z,22.80
2022-09-01T13:45:26.128Z,23.00
2022-09-01T13:53:28.663Z,23.30
2022-09-01T13:55:59.002Z,23.40
2022-09-01T13:58:25.965Z,23.40
2022-09-01T14:00:52.757Z,23.40
2022-09-01T14:03:23.195Z,23.40
2022-09-01T14:05:50.311Z,23.30
2022-09-01T14:08:20.091Z,23.30
2022-09-01T14:10:50.655Z,23.40
2022-09-01T14:13:18.536Z,23.40
2022-09-01T14:15:46.862Z,23.50
2022-09-01T14:18:17.609Z,23.60
2022-09-01T14:20:47.148Z,23.80
2022-09-01T14:23:15.517Z,23.90
2022-09-01T14:25:47.848Z,24.10
2022-09-01T14:28:16.408Z,24.30
2022-09-01T14:30:47.609Z,24.40
2022-09-01T14:33:15.172Z,24.50
2022-09-01T14:35:47.533Z,24.70
2022-09-01T14:38:15.208Z,24.80
2022-09-01T14:40:43.965Z,24.90
2022-09-01T14:43:16.688Z,24.90
2022-09-01T14:45:47.474Z,24.90
2022-09-01T14:48:17.087Z,25.00
2022-09-01T14:50:47.449Z,24.80
2022-09-01T14:53:14.576Z,24.70
2022-09-01T14:55:44.007Z,24.80
2022-09-01T14:58:11.098Z,24.80
2022-09-01T15:00:39.219Z,24.90
2022-09-01T15:03:06.084Z,25.40
2022-09-01T15:05:39.394Z,25.80
2022-09-01T15:08:09.045Z,26.10
2022-09-01T15:10:36.700Z,26.30
2022-09-01T15:13:04.419Z,26.30
2022-09-01T15:15:32.156Z,26.30
2022-09-01T15:18:00.608Z,26.20
2022-09-01T15:20:46.612Z,26.30
2022-09-01T15:23:21.557Z,26.50
2022-09-01T15:25:50.384Z,26.70
2022-09-01T15:28:17.710Z,26.90
2022-09-01T15:30:45.620Z,26.60
2022-09-01T15:33:15.778Z,26.20
2022-09-01T15:35:44.365Z,25.80
2022-09-01T15:38:13.430Z,25.40
2022-09-01T15:40:55.252Z,25.10
2022-09-01T15:43:26.910Z,24.70
2022-09-01T15:45:53.739Z,24.20
2022-09-01T15:48:20.379Z,23.90
2022-09-01T15:50:47.062Z,23.70
2022-09-01T15:53:13.864Z,23.60
2022-09-01T15:55:46.181Z,23.40
2022-09-01T15:58:15.521Z,23.40
2022-09-01T16:00:43.805Z,23.40
2022-09-01T16:03:11.445Z,23.40
2022-09-01T16:05:40.514Z,23.40
2022-09-01T16:08:11.439Z,23.40
2022-09-01T16:10:40.018Z,23.40
2022-09-01T16:13:07.466Z,23.40
2022-09-01T16:15:35.218Z,23.40
2022-09-01T16:18:05.277Z,23.40
2022-09-01T16:20:48.213Z,23.40
2022-09-01T16:23:23.966Z,23.30
2022-09-01T16:25:53.109Z,23.30
2022-09-01T16:28:25.452Z,23.30
2022-09-01T16:30:57.983Z,23.20
2022-09-01T16:33:24.755Z,23.10
2022-09-01T16:35:55.817Z,23.10
2022-09-01T16:38:53.882Z,23.00
2022-09-01T16:41:43.821Z,23.10
2022-09-01T16:44:21.586Z,23.10
2022-09-01T16:47:40.139Z,23.20
2022-09-01T16:50:17.468Z,23.20
2022-09-01T16:53:14.879Z,23.20
2022-09-01T16:56:01.046Z,23.10
2022-09-01T16:58:39.989Z,23.10
2022-09-01T17:01:30.515Z,23.20
2022-09-01T17:04:22.867Z,23.40
2022-09-01T17:07:24.214Z,23.70
2022-09-01T17:10:05.498Z,24.00
2022-09-01T17:12:46.893Z,24.10
2022-09-01T17:15:18.143Z,24.20
2022-09-01T17:17:47.774Z,24.10
2022-09-01T17:20:16.143Z,23.80
2022-09-01T17:22:57.072Z,23.60
2022-09-01T17:25:33.824Z,23.40
2022-09-01T17:28:02.288Z,23.20
2022-09-01T17:30:31.939Z,23.10
2022-09-01T17:33:19.372Z,23.10
2022-09-01T17:36:18.573Z,23.20
2022-09-01T17:39:06.467Z,23.30
2022-09-01T17:41:45.652Z,23.40
2022-09-01T17:44:30.753Z,23.50
2022-09-01T17:47:12.553Z,23.60
2022-09-01T17:49:59.028Z,23.60
2022-09-01T17:52:55.671Z,23.50
2022-09-01T17:55:37.743Z,23.40
2022-09-01T17:58:13.644Z,23.20
2022-09-01T18:00:52.786Z,23.20
2022-09-01T18:03:34.354Z,23.10
2022-09-01T18:06:15.321Z,23.00
2022-09-01T18:08:44.437Z,23.00
2022-09-01T18:11:32.982Z,23.00
2022-09-01T18:14:08.850Z,23.00
2022-09-01T18:16:47.225Z,22.90
2022-09-01T18:19:20.901Z,22.90
2022-09-01T18:21:58.101Z,22.90
2022-09-01T18:24:33.426Z,22.90
2022-09-01T18:27:01.826Z,22.80
2022-09-01T18:29:31.395Z,22.80
2022-09-01T18:32:17.929Z,22.80
2022-09-01T18:35:12.224Z,22.80
2022-09-01T18:38:09.097Z,22.70
2022-09-01T18:40:48.042Z,22.60
2022-09-01T18:43:22.917Z,22.60
2022-09-01T18:46:00.754Z,22.60
2022-09-01T18:48:40.092Z,22.60
2022-09-01T18:51:24.544Z,22.50
2022-09-01T18:54:09.198Z,22.50
2022-09-01T18:56:57.256Z,22.50
2022-09-01T18:59:45.840Z,22.50
2022-09-01T19:02:45.421Z,22.50
2022-09-01T19:05:30.166Z,22.50
2022-09-01T19:08:21.426Z,22.50
2022-09-01T19:11:09.660Z,22.50
2022-09-01T19:13:46.657Z,22.50
2022-09-01T19:16:23.987Z,22.50
2022-09-01T19:19:15.970Z,22.40
2022-09-01T19:21:44.667Z,22.40
2022-09-01T19:24:17.277Z,22.40
2022-09-01T19:26:48.016Z,22.30
2022-09-01T19:29:29.991Z,22.30
2022-09-01T19:32:05.671Z,22.20
2022-09-01T19:34:46.858Z,22.20
2022-09-01T19:37:13.662Z,22.10
2022-09-01T19:39:44.563Z,21.90
2022-09-01T19:42:38.717Z,21.80
2022-09-01T19:45:12.984Z,21.70
2022-09-01T19:47:54.156Z,21.60
2022-09-01T19:50:46.616Z,21.60
2022-09-01T19:53:38.209Z,21.50
2022-09-01T19:56:27.664Z,21.50
2022-09-01T19:59:13.979Z,21.50
2022-09-01T20:01:40.868Z,21.50
2022-09-01T20:04:46.054Z,21.40
2022-09-01T20:07:25.406Z,21.40
2022-09-01T20:10:36.135Z,21.30
2022-09-01T20:13:40.231Z,21.30
2022-09-01T20:16:23.994Z,21.30
2022-09-01T20:18:55.819Z,21.30
2022-09-01T20:21:22.455Z,21.30
2022-09-01T20:23:58.374Z,21.30
2022-09-01T20:26:48.645Z,21.30
2022-09-01T20:29:28.081Z,21.30
2022-09-01T20:31:58.687Z,21.20
2022-09-01T20:34:44.710Z,21.20
2022-09-01T20:37:36.531Z,21.20
2022-09-01T20:40:17.033Z,21.20
2022-09-01T20:43:03.302Z,21.20
2022-09-01T20:45:31.909Z,21.20
2022-09-01T20:48:04.961Z,21.20
2022-09-01T20:50:38.873Z,21.20
2022-09-01T20:53:50.618Z,21.20
2022-09-01T20:56:17.368Z,21.20
2022-09-01T20:58:47.544Z,21.20
2022-09-01T21:01:36.623Z,21.20
2022-09-01T21:04:44.934Z,21.20
2022-09-01T21:07:50.694Z,21.20
2022-09-01T21:10:42.069Z,21.20
2022-09-01T21:13:46.363Z,21.10
2022-09-01T21:16:26.623Z,21.10
2022-09-01T21:19:05.592Z,21.10
2022-09-01T21:21:55.314Z,21.10
2022-09-01T21:24:21.971Z,21.00
2022-09-01T21:26:56.620Z,21.00
2022-09-01T21:29:33.977Z,21.00
2022-09-01T21:32:01.022Z,21.00
2022-09-01T21:34:27.994Z,21.00
2022-09-01T21:36:55.555Z,21.00
2022-09-01T21:39:22.532Z,21.00
2022-09-01T21:41:49.648Z,21.00
2022-09-01T21:44:17.031Z,21.00
2022-09-01T21:46:44.749Z,21.00
2022-09-01T21:49:14.122Z,20.90
2022-09-01T21:51:42.014Z,21.00
2022-09-01T21:54:09.339Z,21.00
2022-09-01T21:56:36.157Z,21.00
2022-09-01T21:59:02.864Z,21.00
2022-09-01T22:01:31.751Z,20.90
2022-09-01T22:03:59.442Z,20.90
2022-09-01T22:06:27.293Z,20.80
2022-09-01T22:08:56.146Z,20.80
2022-09-01T22:11:23.143Z,20.80
2022-09-01T22:13:50.181Z,20.80
2022-09-01T22:16:21.261Z,20.80
2022-09-01T22:18:48.053Z,20.70
2022-09-01T22:21:15.616Z,20.70
2022-09-01T22:23:43.204Z,20.70
2022-09-01T22:26:17.723Z,20.70
2022-09-01T22:28:44.385Z,20.60
2022-09-01T22:31:15.971Z,20.60
2022-09-01T22:33:43.190Z,20.60
2022-09-01T22:36:10.263Z,20.60
2022-09-01T22:38:37.012Z,20.50
2022-09-01T22:41:03.679Z,20.50
2022-09-01T22:43:30.669Z,20.50
2022-09-01T22:45:58.412Z,20.50
2022-09-01T22:48:27.003Z,20.40
2022-09-01T22:50:53.960Z,20.40
2022-09-01T22:53:22.161Z,20.40
2022-09-01T22:55:51.595Z,20.40
2022-09-01T22:58:19.582Z,20.40
2022-09-01T23:00:50.135Z,20.40
2022-09-01T23:03:18.370Z,20.40
2022-09-01T23:05:46.819Z,20.40
2022-09-01T23:08:14.807Z,20.40
2022-09-01T23:10:41.676Z,20.40
2022-09-01T23:13:08.649Z,20.40
2022-09-01T23:15:35.428Z,20.40
2022-09-01T23:18:02.113Z,20.40
2022-09-01T23:20:28.984Z,20.40
2022-09-01T23:22:56.078Z,20.40
2022-09-01T23:25:24.213Z,20.40
2022-09-01T23:27:50.909Z,20.40
2022-09-01T23:30:17.601Z,20.40
2022-09-01T23:32:44.370Z,20.40
2022-09-01T23:35:11.362Z,20.30
2022-09-01T23:37:38.212Z,20.30
2022-09-01T23:40:07.051Z,20.30
2022-09-01T23:42:34.331Z,20.20
2022-09-01T23:45:00.991Z,20.20
2022-09-01T23:47:28.041Z,20.20
2022-09-01T23:49:56.486Z,20.20
2022-09-01T23:52:23.126Z,20.10
2022-09-01T23:54:49.747Z,20.10
2022-09-01T23:57:16.381Z,20.10
2022-09-01T23:59:43.026Z,20.00
